createdAt,value
2023-02-19T00:01:48.131Z,94.43
2023-02-19T00:04:17.264Z,94.10
2023-02-19T00:06:45.919Z,94.01
2023-02-19T00:09:15.191Z,95.29
2023-02-19T00:11:43.183Z,95.26
2023-02-19T00:14:16.017Z,96.45
2023-02-19T00:16:42.749Z,96.87
2023-02-19T00:19:14.637Z,97.67
2023-02-19T00:21:41.647Z,97.65
2023-02-19T00:24:11.766Z,97.53
2023-02-19T00:26:42.253Z,97.71
2023-02-19T00:29:14.120Z,97.77
2023-02-19T00:31:41.353Z,97.11
2023-02-19T00:34:10.099Z,96.90
2023-02-19T00:36:39.249Z,96.61
2023-02-19T00:39:07.534Z,97.73
2023-02-19T00:41:34.670Z,97.16
2023-02-19T00:44:05.756Z,96.95
2023-02-19T00:46:39.662Z,97.34
2023-02-19T00:49:08.760Z,97.05
2023-02-19T00:51:37.961Z,97.05
2023-02-19T00:54:06.248Z,96.27
2023-02-19T00:56:33.403Z,98.01
2023-02-19T00:59:00.220Z,98.01
2023-02-19T01:01:27.113Z,97.24
2023-02-19T01:03:53.932Z,97.62
2023-02-19T01:06:21.499Z,97.67
2023-02-19T01:08:49.032Z,97.63
2023-02-19T01:11:16.913Z,97.88
2023-02-19T01:13:43.997Z,98.85
2023-02-19T01:16:18.590Z,98.20
2023-02-19T01:18:46.604Z,99.58
2023-02-19T01:21:16.659Z,99.42
2023-02-19T01:23:44.328Z,99.83
2023-02-19T01:26:19.133Z,100.00
2023-02-19T01:28:46.124Z,100.00
2023-02-19T01:31:17.003Z,99.81
2023-02-19T01:33:49.492Z,98.69
2023-02-19T01:36:16.564Z,98.18
2023-02-19T01:38:43.886Z,97.60
2023-02-19T01:41:17.407Z,98.27
2023-02-19T01:44:29.322Z,97.41
2023-02-19T01:46:59.012Z,99.27
2023-02-19T01:49:33.876Z,98.36
2023-02-19T01:52:31.921Z,96.88
2023-02-19T01:55:01.827Z,95.25
2023-02-19T01:57:34.369Z,94.82
2023-02-19T02:00:09.507Z,94.16
2023-02-19T02:02:37.119Z,93.38
2023-02-19T02:05:04.433Z,92.17
2023-02-19T02:07:49.533Z,91.57
2023-02-19T02:10:22.297Z,90.79
2023-02-19T02:12:53.901Z,90.44
2023-02-19T02:15:22.443Z,89.62
2023-02-19T02:18:12.933Z,89.01
2023-02-19T02:20:58.332Z,88.56
2023-02-19T02:23:58.560Z,88.17
2023-02-19T02:26:34.342Z,87.82
2023-02-19T02:29:32.529Z,87.51
2023-02-19T02:32:11.674Z,86.75
2023-02-19T02:35:08.922Z,86.53
2023-02-19T02:37:39.352Z,86.26
2023-02-19T02:40:08.926Z,86.10
2023-02-19T02:42:39.156Z,86.31
2023-02-19T02:45:36.521Z,85.69
2023-02-19T02:48:20.727Z,85.48
2023-02-19T02:51:06.934Z,85.11
2023-02-19T02:54:05.995Z,85.06
2023-02-19T02:56:34.684Z,85.13
2023-02-19T02:59:04.492Z,85.10
2023-02-19T03:02:00.279Z,84.89
2023-02-19T03:05:26.952Z,85.06
2023-02-19T03:08:12.168Z,85.11
2023-02-19T03:10:50.563Z,85.71
2023-02-19T03:14:05.582Z,85.64
2023-02-19T03:16:55.308Z,85.98
2023-02-19T03:19:25.400Z,85.77
2023-02-19T03:22:18.018Z,86.26
2023-02-19T03:25:12.923Z,85.71
2023-02-19T03:27:42.999Z,85.48
2023-02-19T03:30:21.203Z,85.75
2023-02-19T03:33:17.624Z,85.68
2023-02-19T03:35:57.002Z,85.56
2023-02-19T03:38:32.271Z,85.23
2023-02-19T03:41:11.675Z,85.03
2023-02-19T03:43:52.693Z,84.56
2023-02-19T03:46:30.330Z,84.52
2023-02-19T03:49:06.229Z,84.19
2023-02-19T03:52:02.593Z,83.74
2023-02-19T03:54:44.973Z,84.14
2023-02-19T03:57:21.563Z,84.66
2023-02-19T04:00:11.012Z,84.64
2023-02-19T04:03:11.722Z,84.82
2023-02-19T04:05:46.968Z,84.34
2023-02-19T04:08:19.902Z,85.08
2023-02-19T04:10:47.596Z,84.84
2023-02-19T04:13:25.173Z,84.94
2023-02-19T04:15:57.199Z,84.95
2023-02-19T04:18:31.824Z,85.52
2023-02-19T04:21:00.718Z,85.51
2023-02-19T04:23:31.026Z,84.79
2023-02-19T04:26:00.414Z,84.25
2023-02-19T04:28:29.247Z,84.31
2023-02-19T04:30:56.105Z,84.15
2023-02-19T04:33:22.891Z,83.91
2023-02-19T04:35:49.620Z,83.88
2023-02-19T04:38:16.401Z,84.08
2023-02-19T04:40:43.201Z,84.18
2023-02-19T04:43:09.966Z,84.08
2023-02-19T04:45:39.747Z,84.17
2023-02-19T04:48:06.555Z,84.95
2023-02-19T04:50:33.355Z,84.57
2023-02-19T04:53:00.150Z,84.68
2023-02-19T04:55:26.876Z,84.65
2023-02-19T04:57:53.593Z,84.90
2023-02-19T05:00:20.550Z,84.93
2023-02-19T05:02:47.751Z,84.93
2023-02-19T05:05:14.520Z,85.14
2023-02-19T05:07:41.269Z,85.68
2023-02-19T05:10:08.230Z,85.46
2023-02-19T05:12:35.000Z,85.00
2023-02-19T05:15:01.737Z,85.04
2023-02-19T05:17:28.618Z,85.12
2023-02-19T05:19:55.363Z,85.54
2023-02-19T05:22:22.153Z,85.70
2023-02-19T05:24:48.914Z,85.50
2023-02-19T05:27:15.640Z,85.86
2023-02-19T05:29:42.388Z,85.61
2023-02-19T05:32:09.329Z,86.08
2023-02-19T05:34:36.152Z,86.31
2023-02-19T05:37:04.771Z,85.91
2023-02-19T05:39:31.576Z,86.13
2023-02-19T05:41:58.333Z,85.66
2023-02-19T05:44:25.934Z,85.96
2023-02-19T05:46:52.687Z,86.56
2023-02-19T05:49:19.433Z,86.33
2023-02-19T05:51:46.174Z,86.51
2023-02-19T05:54:12.933Z,86.56
2023-02-19T05:56:42.708Z,87.34
2023-02-19T05:59:20.937Z,87.88
2023-02-19T06:01:50.388Z,89.00
2023-02-19T06:04:19.291Z,89.86
2023-02-19T06:06:47.730Z,91.33
2023-02-19T06:09:14.481Z,92.22
2023-02-19T06:11:41.432Z,92.12
2023-02-19T06:14:08.332Z,92.41
2023-02-19T06:16:35.221Z,93.69
2023-02-19T06:19:05.444Z,93.44
2023-02-19T06:21:32.388Z,95.13
2023-02-19T06:23:59.260Z,95.59
2023-02-19T06:26:26.394Z,96.31
2023-02-19T06:28:53.737Z,96.59
2023-02-19T06:31:22.573Z,95.94
2023-02-19T06:33:50.903Z,96.75
2023-02-19T06:36:20.609Z,96.47
2023-02-19T06:38:47.476Z,96.94
2023-02-19T06:41:14.857Z,97.04
2023-02-19T06:43:42.504Z,98.19
2023-02-19T06:46:14.132Z,98.18
2023-02-19T06:48:43.299Z,98.21
2023-02-19T06:51:18.779Z,98.08
2023-02-19T06:53:46.509Z,97.42
2023-02-19T06:56:32.540Z,98.63
2023-02-19T06:59:03.107Z,98.18
2023-02-19T07:01:32.010Z,98.69
2023-02-19T07:03:59.290Z,99.77
2023-02-19T07:06:27.600Z,99.70
2023-02-19T07:08:56.338Z,100.00
2023-02-19T07:11:23.951Z,100.00
2023-02-19T07:13:56.547Z,100.00
2023-02-19T07:16:24.062Z,100.00
2023-02-19T07:18:50.948Z,100.00
2023-02-19T07:21:18.955Z,100.00
2023-02-19T07:23:46.277Z,100.00
2023-02-19T07:26:18.222Z,100.00
2023-02-19T07:28:45.967Z,100.00
2023-02-19T07:31:14.497Z,100.00
2023-02-19T07:33:46.635Z,100.00
2023-02-19T07:36:15.354Z,100.00
2023-02-19T07:38:42.127Z,100.00
2023-02-19T07:41:09.452Z,100.00
2023-02-19T07:43:38.512Z,100.00
2023-02-19T07:46:11.458Z,100.00
2023-02-19T07:48:39.066Z,99.43
2023-02-19T07:51:10.659Z,100.00
2023-02-19T07:53:37.646Z,99.63
2023-02-19T07:56:07.330Z,98.68
2023-02-19T07:58:35.037Z,97.80
2023-02-19T08:01:16.513Z,98.11
2023-02-19T08:03:45.211Z,97.13
2023-02-19T08:06:12.812Z,97.10
2023-02-19T08:08:40.320Z,97.40
2023-02-19T08:11:25.976Z,97.31
2023-02-19T08:13:53.739Z,96.13
2023-02-19T08:16:36.943Z,95.93
2023-02-19T08:19:08.775Z,95.91
2023-02-19T08:21:35.537Z,96.04
2023-02-19T08:24:02.304Z,95.42
2023-02-19T08:26:29.123Z,94.29
2023-02-19T08:28:55.846Z,94.09
2023-02-19T08:31:22.677Z,92.81
2023-02-19T08:33:49.468Z,91.01
2023-02-19T08:36:16.235Z,90.46
2023-02-19T08:38:43.035Z,90.42
2023-02-19T08:41:13.892Z,90.60
2023-02-19T08:43:42.075Z,92.09
2023-02-19T08:46:10.578Z,91.53
2023-02-19T08:48:38.682Z,90.60
2023-02-19T08:51:10.238Z,88.75
2023-02-19T08:53:39.102Z,88.76
2023-02-19T08:56:15.622Z,88.68
2023-02-19T08:58:42.820Z,86.68
2023-02-19T09:01:13.767Z,85.41
2023-02-19T09:03:41.034Z,85.26
2023-02-19T09:06:08.546Z,85.20
2023-02-19T09:08:35.418Z,86.16
2023-02-19T09:11:04.750Z,86.62
2023-02-19T09:13:31.871Z,86.08
2023-02-19T09:15:58.678Z,83.41
2023-02-19T09:18:26.561Z,83.73
2023-02-19T09:20:53.385Z,83.59
2023-02-19T09:23:20.185Z,84.30
2023-02-19T09:25:47.176Z,81.40
2023-02-19T09:28:14.031Z,79.20
2023-02-19T09:30:40.818Z,78.01
2023-02-19T09:33:08.064Z,79.39
2023-02-19T09:35:34.792Z,79.72
2023-02-19T09:38:02.227Z,78.74
2023-02-19T09:40:30.562Z,76.69
2023-02-19T09:42:57.800Z,77.09
2023-02-19T09:45:26.423Z,76.12
2023-02-19T09:47:56.801Z,78.15
2023-02-19T09:50:33.724Z,76.16
2023-02-19T09:53:05.684Z,75.12
2023-02-19T09:55:51.562Z,76.08
2023-02-19T09:58:30.127Z,75.19
2023-02-19T10:01:00.948Z,75.38
2023-02-19T10:03:39.210Z,76.22
2023-02-19T10:06:29.965Z,75.55
2023-02-19T10:09:14.520Z,76.32
2023-02-19T10:11:42.252Z,75.60
2023-02-19T10:14:17.771Z,75.41
2023-02-19T10:16:48.187Z,75.39
2023-02-19T10:19:16.321Z,75.70
2023-02-19T10:21:43.858Z,75.26
2023-02-19T10:24:26.358Z,76.32
2023-02-19T10:26:53.220Z,77.01
2023-02-19T10:29:22.044Z,76.10
2023-02-19T10:31:49.063Z,74.40
2023-02-19T10:34:23.337Z,75.36
2023-02-19T10:36:52.418Z,76.12
2023-02-19T10:39:21.927Z,76.92
2023-02-19T10:41:50.933Z,76.93
2023-02-19T10:44:35.637Z,74.99
2023-02-19T10:47:02.491Z,76.52
2023-02-19T10:49:35.690Z,76.55
2023-02-19T10:52:21.742Z,75.20
2023-02-19T10:54:56.407Z,75.18
2023-02-19T10:57:33.107Z,74.82
2023-02-19T11:00:22.776Z,75.23
2023-02-19T11:02:49.723Z,75.73
2023-02-19T11:05:20.982Z,74.71
2023-02-19T11:07:56.042Z,75.45
2023-02-19T11:10:42.407Z,75.31
2023-02-19T11:13:18.565Z,74.34
2023-02-19T11:15:53.621Z,73.91
2023-02-19T11:18:28.208Z,73.46
2023-02-19T11:20:59.324Z,73.77
2023-02-19T11:23:36.561Z,73.99
2023-02-19T11:26:17.126Z,73.25
2023-02-19T11:28:44.811Z,72.19
2023-02-19T11:31:36.247Z,71.90
2023-02-19T11:34:21.423Z,72.61
2023-02-19T11:37:14.906Z,70.62
2023-02-19T11:39:45.741Z,71.02
2023-02-19T11:42:18.538Z,71.27
2023-02-19T11:44:55.274Z,71.92
2023-02-19T11:48:08.332Z,72.20
2023-02-19T11:50:59.877Z,72.09
2023-02-19T11:53:28.088Z,73.70
2023-02-19T11:56:25.017Z,70.80
2023-02-19T11:59:05.455Z,72.38
2023-02-19T12:01:56.629Z,71.14
2023-02-19T12:04:39.613Z,70.94
2023-02-19T12:07:43.545Z,71.14
2023-02-19T12:10:58.337Z,70.29
2023-02-19T12:13:49.139Z,70.87
2023-02-19T12:16:55.923Z,69.89
2023-02-19T12:19:39.399Z,69.88
2023-02-19T12:22:31.279Z,68.92
2023-02-19T12:25:25.788Z,69.32
2023-02-19T12:28:23.478Z,69.47
2023-02-19T12:31:34.806Z,69.33
2023-02-19T12:34:36.362Z,70.31
2023-02-19T12:37:24.680Z,69.91
2023-02-19T12:40:19.412Z,70.08
2023-02-19T12:43:14.099Z,68.36
2023-02-19T12:45:52.688Z,68.43
2023-02-19T12:48:44.776Z,68.31
2023-02-19T12:51:34.093Z,68.09
2023-02-19T12:54:04.400Z,68.32
2023-02-19T12:56:39.633Z,67.47
2023-02-19T12:59:23.779Z,67.32
2023-02-19T13:01:56.532Z,68.33
2023-02-19T13:04:35.126Z,69.20
2023-02-19T13:07:52.123Z,70.64
2023-02-19T13:10:35.744Z,70.47
2023-02-19T13:13:12.865Z,69.93
2023-02-19T13:15:44.352Z,69.55
2023-02-19T13:18:20.844Z,69.58
2023-02-19T13:20:49.240Z,70.00
2023-02-19T13:23:57.651Z,70.14
2023-02-19T13:27:13.253Z,72.50
2023-02-19T13:30:24.957Z,71.07
2023-02-19T13:33:55.573Z,71.18
2023-02-19T13:36:29.967Z,70.25
2023-02-19T13:38:57.802Z,71.83
2023-02-19T13:41:37.588Z,70.57
2023-02-19T13:44:08.494Z,71.83
2023-02-19T13:46:44.521Z,73.07
2023-02-19T13:49:24.140Z,72.27
2023-02-19T13:51:53.553Z,72.30
2023-02-19T13:54:40.065Z,72.98
2023-02-19T13:57:20.237Z,72.63
2023-02-19T13:59:48.395Z,71.98
2023-02-19T14:02:21.288Z,72.47
2023-02-19T14:04:57.075Z,74.00
2023-02-19T14:07:54.010Z,76.61
2023-02-19T14:10:51.720Z,76.70
2023-02-19T14:13:52.510Z,78.85
2023-02-19T14:16:28.391Z,79.06
2023-02-19T14:18:56.398Z,79.04
2023-02-19T14:21:38.672Z,79.64
2023-02-19T14:24:10.843Z,79.94
2023-02-19T14:26:38.494Z,80.91
2023-02-19T14:29:08.731Z,80.79
2023-02-19T14:31:39.324Z,79.85
2023-02-19T14:34:14.979Z,81.37
2023-02-19T14:36:51.884Z,79.19
2023-02-19T14:39:35.238Z,79.27
2023-02-19T14:42:34.193Z,78.76
2023-02-19T14:45:03.895Z,78.46
2023-02-19T14:47:35.103Z,79.02
2023-02-19T14:50:13.629Z,79.28
2023-02-19T14:52:54.312Z,79.15
2023-02-19T14:55:32.914Z,78.18
2023-02-19T14:58:05.251Z,77.71
2023-02-19T15:00:43.126Z,77.84
2023-02-19T15:03:37.406Z,78.50
2023-02-19T15:06:07.200Z,77.80
2023-02-19T15:08:38.875Z,77.91
2023-02-19T15:11:14.639Z,76.71
2023-02-19T15:13:45.744Z,77.42
2023-02-19T15:16:22.651Z,77.26
2023-02-19T15:18:51.978Z,76.02
2023-02-19T15:21:28.661Z,75.93
2023-02-19T15:24:01.745Z,76.78
2023-02-19T15:26:36.397Z,73.60
2023-02-19T15:29:10.743Z,73.49
2023-02-19T15:31:56.058Z,72.53
2023-02-19T15:34:27.046Z,73.17
2023-02-19T15:37:07.015Z,72.48
2023-02-19T15:39:35.338Z,72.39
2023-02-19T15:42:05.357Z,72.30
2023-02-19T15:44:42.013Z,70.91
2023-02-19T15:47:39.078Z,72.31
2023-02-19T15:50:26.116Z,71.60
2023-02-19T15:53:03.656Z,71.59
2023-02-19T15:55:46.245Z,72.61
2023-02-19T15:58:40.398Z,71.72
2023-02-19T16:01:25.712Z,71.74
2023-02-19T16:03:56.349Z,72.40
2023-02-19T16:06:26.270Z,72.68
2023-02-19T16:08:52.998Z,72.01
2023-02-19T16:11:22.763Z,72.10
2023-02-19T16:13:52.012Z,73.18
2023-02-19T16:16:24.172Z,72.72
2023-02-19T16:18:52.423Z,74.01
2023-02-19T16:21:23.919Z,73.56
2023-02-19T16:24:01.880Z,73.62
2023-02-19T16:26:28.740Z,74.17
2023-02-19T16:28:56.605Z,74.64
2023-02-19T16:31:24.076Z,74.98
2023-02-19T16:33:51.470Z,75.29
2023-02-19T16:36:34.890Z,75.46
2023-02-19T16:39:07.490Z,76.44
2023-02-19T16:41:40.150Z,77.07
2023-02-19T16:44:21.763Z,77.44
2023-02-19T16:46:54.294Z,77.71
2023-02-19T16:49:24.067Z,77.91
2023-02-19T16:51:51.475Z,78.17
2023-02-19T16:54:18.203Z,79.13
2023-02-19T16:56:44.951Z,79.41
2023-02-19T16:59:11.684Z,79.80
2023-02-19T17:01:38.770Z,78.60
2023-02-19T17:04:08.681Z,78.42
2023-02-19T17:06:37.947Z,77.88
2023-02-19T17:09:06.882Z,77.50
2023-02-19T17:11:33.650Z,77.41
2023-02-19T17:14:00.911Z,76.80
2023-02-19T17:16:32.138Z,76.28
2023-02-19T17:18:58.997Z,76.34
2023-02-19T17:21:32.049Z,76.46
2023-02-19T17:23:58.787Z,75.36
2023-02-19T17:26:31.682Z,75.66
2023-02-19T17:28:59.801Z,75.87
2023-02-19T17:31:27.534Z,75.95
2023-02-19T17:33:54.930Z,75.45
2023-02-19T17:36:30.926Z,74.81
2023-02-19T17:39:02.776Z,75.21
2023-02-19T17:41:29.879Z,75.43
2023-02-19T17:43:56.646Z,75.27
2023-02-19T17:46:26.708Z,75.88
2023-02-19T17:48:54.885Z,75.81
2023-02-19T17:51:22.239Z,75.68
2023-02-19T17:53:49.458Z,75.73
2023-02-19T17:56:23.904Z,75.81
2023-02-19T17:58:50.650Z,76.80
2023-02-19T18:01:17.929Z,75.34
2023-02-19T18:03:44.795Z,75.34
2023-02-19T18:06:11.864Z,75.75
2023-02-19T18:08:38.690Z,75.65
2023-02-19T18:11:07.096Z,75.58
2023-02-19T18:13:33.847Z,75.84
2023-02-19T18:16:00.614Z,76.15
2023-02-19T18:18:27.358Z,75.77
2023-02-19T18:20:54.103Z,75.69
2023-02-19T18:23:20.836Z,75.95
2023-02-19T18:25:47.717Z,76.36
2023-02-19T18:28:15.158Z,76.03
2023-02-19T18:30:42.061Z,75.67
2023-02-19T18:33:11.023Z,76.64
2023-02-19T18:35:38.574Z,75.85
2023-02-19T18:38:06.125Z,76.03
2023-02-19T18:40:32.854Z,75.46
2023-02-19T18:42:59.864Z,75.92
2023-02-19T18:45:27.656Z,76.19
2023-02-19T18:47:54.534Z,76.01
2023-02-19T18:50:21.482Z,77.24
2023-02-19T18:52:48.304Z,77.13
2023-02-19T18:55:15.157Z,77.70
2023-02-19T18:57:41.977Z,78.46
2023-02-19T19:00:09.622Z,78.53
2023-02-19T19:02:48.711Z,78.65
2023-02-19T19:05:23.739Z,79.51
2023-02-19T19:07:56.545Z,79.24
2023-02-19T19:10:24.019Z,79.68
2023-02-19T19:12:51.408Z,80.31
2023-02-19T19:15:19.029Z,81.38
2023-02-19T19:17:47.749Z,79.48
2023-02-19T19:20:17.987Z,79.27
2023-02-19T19:22:44.758Z,80.05
2023-02-19T19:25:11.822Z,80.14
2023-02-19T19:27:38.596Z,80.88
2023-02-19T19:30:06.337Z,81.29
2023-02-19T19:32:33.099Z,81.94
2023-02-19T19:35:00.049Z,80.82
2023-02-19T19:37:28.907Z,81.19
2023-02-19T19:39:56.554Z,81.06
2023-02-19T19:42:23.703Z,80.87
2023-02-19T19:44:50.658Z,80.67
2023-02-19T19:47:17.486Z,80.86
2023-02-19T19:49:47.402Z,80.66
2023-02-19T19:52:14.752Z,81.28
2023-02-19T19:54:43.265Z,81.39
2023-02-19T19:57:10.800Z,82.18
2023-02-19T19:59:39.474Z,81.67
2023-02-19T20:02:07.972Z,81.68
2023-02-19T20:04:34.875Z,81.44
2023-02-19T20:07:02.333Z,81.51
2023-02-19T20:09:29.426Z,80.90
2023-02-19T20:11:56.654Z,81.30
2023-02-19T20:14:25.102Z,81.90
2023-02-19T20:16:52.959Z,81.62
2023-02-19T20:19:20.980Z,81.92
2023-02-19T20:21:53.240Z,82.10
2023-02-19T20:24:28.681Z,81.87
2023-02-19T20:27:02.082Z,81.80
2023-02-19T20:29:31.514Z,81.82
2023-02-19T20:32:00.293Z,82.21
2023-02-19T20:34:27.437Z,81.85
2023-02-19T20:36:54.704Z,82.27
2023-02-19T20:39:22.192Z,82.46
2023-02-19T20:41:51.951Z,83.13
2023-02-19T20:44:19.363Z,84.28
2023-02-19T20:46:49.661Z,86.68
2023-02-19T20:49:19.492Z,87.20
2023-02-19T20:52:01.898Z,90.45
2023-02-19T20:54:31.694Z,93.43
2023-02-19T20:57:02.969Z,92.52
2023-02-19T20:59:35.171Z,92.30
2023-02-19T21:02:04.090Z,91.50
2023-02-19T21:04:31.419Z,89.97
2023-02-19T21:06:58.529Z,90.53
2023-02-19T21:09:25.407Z,91.36
2023-02-19T21:11:53.523Z,91.95
2023-02-19T21:14:20.540Z,92.99
2023-02-19T21:16:47.493Z,92.31
2023-02-19T21:19:14.344Z,92.85
2023-02-19T21:21:41.108Z,94.07
2023-02-19T21:24:09.828Z,94.29
2023-02-19T21:26:39.701Z,95.80
2023-02-19T21:29:08.388Z,95.94
2023-02-19T21:31:41.644Z,96.19
2023-02-19T21:34:12.223Z,96.93
2023-02-19T21:36:39.490Z,96.43
2023-02-19T21:39:08.600Z,96.13
2023-02-19T21:41:35.630Z,96.85
2023-02-19T21:44:04.192Z,97.97
2023-02-19T21:46:33.003Z,98.40
2023-02-19T21:49:00.898Z,98.27
2023-02-19T21:51:41.251Z,98.19
2023-02-19T21:54:12.653Z,98.69
2023-02-19T21:56:39.385Z,98.83
2023-02-19T21:59:06.116Z,98.96
2023-02-19T22:01:40.010Z,100.00
2023-02-19T22:04:08.670Z,99.95
2023-02-19T22:06:35.625Z,99.00
2023-02-19T22:09:02.924Z,99.38
2023-02-19T22:11:29.700Z,99.37
2023-02-19T22:13:56.440Z,99.68
2023-02-19T22:16:23.919Z,99.46
2023-02-19T22:18:54.636Z,99.19
2023-02-19T22:21:23.474Z,99.43
2023-02-19T22:23:52.822Z,99.90
2023-02-19T22:26:30.619Z,99.20
2023-02-19T22:28:59.596Z,98.80
2023-02-19T22:31:27.863Z,99.09
2023-02-19T22:33:56.485Z,99.53
2023-02-19T22:36:27.855Z,100.00
2023-02-19T22:38:54.911Z,100.00
2023-02-19T22:41:22.894Z,100.00
2023-02-19T22:43:50.156Z,100.00
2023-02-19T22:46:20.382Z,100.00
2023-02-19T22:48:47.724Z,100.00
2023-02-19T22:51:18.018Z,100.00
2023-02-19T22:53:53.719Z,100.00
2023-02-19T22:56:23.790Z,100.00
2023-02-19T22:58:51.280Z,100.00
2023-02-19T23:01:19.067Z,100.00
2023-02-19T23:03:56.707Z,100.00
2023-02-19T23:06:29.675Z,100.00
2023-02-19T23:08:58.436Z,100.00
2023-02-19T23:11:31.776Z,100.00
2023-02-19T23:13:58.824Z,100.00
2023-02-19T23:16:25.837Z,100.00
2023-02-19T23:18:52.808Z,100.00
2023-02-19T23:21:20.960Z,100.00
2023-02-19T23:23:47.895Z,100.00
2023-02-19T23:26:16.363Z,100.00
2023-02-19T23:28:44.480Z,100.00
2023-02-19T23:31:12.685Z,100.00
2023-02-19T23:33:39.868Z,100.00
2023-02-19T23:36:07.428Z,100.00
2023-02-19T23:38:34.308Z,100.00
2023-02-19T23:41:01.287Z,100.00
2023-02-19T23:43:28.237Z,100.00
2023-02-19T23:45:55.154Z,100.00
2023-02-19T23:48:21.933Z,100.00
2023-02-19T23:50:48.663Z,100.00
2023-02-19T23:53:15.403Z,100.00
2023-02-19T23:55:42.190Z,100.00
2023-02-19T23:58:08.961Z,100.00
